Time;durP1;ratioP1;P1;durP2;ratioP2;P2;SDS_P1;SDS_P2;PMS_P1;PMS_P2;Temp;Humidity;BMP_temperature;BMP_pressure;BME280_temperature;BME280_humidity;BME280_pressure;Samples;Min_cycle;Max_cycle;Signal;HPM_P1;HPM_P2
2022/09/22 00:02:13;;;;;;;;;;;17.70;58.40;;;;;;5074783;28;19920;-67
2022/09/22 00:04:38;;;;;;;;;;;17.70;58.40;;;;;;5074720;28;20409;-67
2022/09/22 00:07:04;;;;;;;;;;;17.60;58.30;;;;;;5092517;28;19935;-67
2022/09/22 00:09:30;;;;;;;;;;;17.60;58.30;;;;;;5091434;28;19931;-67
2022/09/22 00:11:55;;;;;;;;;;;17.60;58.30;;;;;;5074394;28;19959;-67
2022/09/22 00:14:23;;;;;;;;;;;17.60;58.30;;;;;;5092027;28;19967;-67
2022/09/22 00:16:50;;;;;;;;;;;17.60;58.30;;;;;;5091170;28;19959;-67
2022/09/22 00:19:17;;;;;;;;;;;17.60;58.30;;;;;;5074225;28;19924;-67
2022/09/22 00:21:44;;;;;;;;;;;17.60;58.30;;;;;;5092325;28;19927;-67
2022/09/22 00:24:09;;;;;;;;;;;17.60;58.20;;;;;;5092312;28;19928;-67
2022/09/22 00:26:36;;;;;;;;;;;17.60;58.20;;;;;;5074457;28;19973;-67
2022/09/22 00:29:03;;;;;;;;;;;17.60;58.20;;;;;;5092482;28;20003;-67
2022/09/22 00:31:29;;;;;;;;;;;17.60;58.30;;;;;;5092314;28;19921;-67
2022/09/22 00:33:55;;;;;;;;;;;17.60;58.30;;;;;;5074105;28;20489;-67
2022/09/22 00:36:24;;;;;;;;;;;17.60;58.20;;;;;;5074386;28;19920;-67
2022/09/22 00:38:50;;;;;;;;;;;17.60;58.20;;;;;;5092223;28;19924;-67
2022/09/22 00:41:19;;;;;;;;;;;17.60;58.20;;;;;;5073987;28;19921;-68
2022/09/22 00:43:46;;;;;;;;;;;17.50;58.20;;;;;;5092325;28;19920;-67
2022/09/22 00:46:27;;;;;;;;;;;17.50;58.20;;;;;;5073455;28;20001;-69
2022/09/22 00:48:55;;;;;;;;;;;17.50;58.20;;;;;;5073809;28;20034;-67
2022/09/22 00:51:24;;;;;;;;;;;17.50;58.20;;;;;;5074268;28;20535;-67
2022/09/22 00:53:50;;;;;;;;;;;17.50;58.20;;;;;;5073834;28;19939;-67
2022/09/22 00:56:20;;;;;;;;;;;17.50;58.20;;;;;;5091961;28;19920;-67
2022/09/22 00:58:48;;;;;;;;;;;17.50;58.10;;;;;;5092043;28;19944;-67
2022/09/22 01:01:14;;;;;;;;;;;17.50;58.20;;;;;;5094883;28;19920;-68
2022/09/22 01:03:41;;;;;;;;;;;17.50;58.10;;;;;;5077643;28;19920;-67
2022/09/22 01:06:08;;;;;;;;;;;17.40;58.00;;;;;;5061098;28;19982;-68
2022/09/22 01:08:36;;;;;;;;;;;17.40;58.00;;;;;;5077549;28;20264;-67
2022/09/22 01:11:02;;;;;;;;;;;17.40;58.00;;;;;;5095789;28;19920;-67
2022/09/22 01:13:30;;;;;;;;;;;17.40;58.10;;;;;;5095294;28;20293;-67
2022/09/22 01:16:16;;;;;;;;;;;17.40;58.00;;;;;;5077555;28;19963;-67
2022/09/22 01:21:26;;;;;;;;;;;17.40;58.00;;;;;;5089948;28;19912;-67
2022/09/22 01:24:11;;;;;;;;;;;17.40;57.90;;;;;;5088605;28;19920;-67
2022/09/22 01:29:36;;;;;;;;;;;17.40;57.90;;;;;;5089905;28;19912;-68
2022/09/22 01:32:10;;;;;;;;;;;17.30;57.90;;;;;;5088823;28;19920;-67
2022/09/22 01:34:56;;;;;;;;;;;17.40;57.90;;;;;;5088525;28;20003;-67
2022/09/22 01:42:48;;;;;;;;;;;17.30;57.80;;;;;;5089984;28;20299;-67
2022/09/22 01:45:16;;;;;;;;;;;17.30;57.80;;;;;;5088548;28;19973;-68
2022/09/22 01:48:02;;;;;;;;;;;17.30;57.80;;;;;;5088844;28;19974;-67
2022/09/22 01:50:31;;;;;;;;;;;17.30;57.80;;;;;;5088234;28;19927;-67
2022/09/22 01:52:59;;;;;;;;;;;17.30;57.80;;;;;;5087611;28;19924;-67
2022/09/22 01:55:26;;;;;;;;;;;17.30;57.80;;;;;;5088326;28;19928;-67
2022/09/22 01:57:56;;;;;;;;;;;17.30;57.80;;;;;;5105373;28;19947;-67
2022/09/22 02:00:22;;;;;;;;;;;17.30;57.80;;;;;;5089478;28;20387;-67
2022/09/22 02:05:42;;;;;;;;;;;17.20;57.80;;;;;;5127850;27;1858766;-67
2022/09/22 02:08:12;;;;;;;;;;;17.20;57.70;;;;;;5174403;27;19919;-67
2022/09/22 02:10:40;;;;;;;;;;;17.20;57.70;;;;;;5174804;27;19971;-68
2022/09/22 02:13:05;;;;;;;;;;;17.20;57.70;;;;;;5174309;27;19964;-68
2022/09/22 02:16:02;;;;;;;;;;;17.20;57.70;;;;;;5174284;27;19950;-67
2022/09/22 02:18:20;;;;;;;;;;;17.20;57.70;;;;;;5174283;27;20009;-67
2022/09/22 02:20:46;;;;;;;;;;;17.20;57.70;;;;;;5174273;27;19918;-67
2022/09/22 02:23:12;;;;;;;;;;;17.20;57.70;;;;;;5174393;27;19959;-67
2022/09/22 02:25:38;;;;;;;;;;;17.20;58.40;;;;;;5192884;27;19919;-67
2022/09/22 02:28:04;;;;;;;;;;;17.30;57.60;;;;;;5174385;27;20274;-67
2022/09/22 02:30:30;;;;;;;;;;;17.60;57.10;;;;;;5174205;27;20005;-67
2022/09/22 02:32:56;;;;;;;;;;;18.20;56.30;;;;;;5173984;27;20370;-67
2022/09/22 02:35:24;;;;;;;;;;;18.80;54.90;;;;;;5192595;27;19950;-67
2022/09/22 02:37:53;;;;;;;;;;;19.50;53.70;;;;;;5173856;27;19922;-67
2022/09/22 02:40:24;;;;;;;;;;;20.10;52.20;;;;;;5192594;27;19923;-67
2022/09/22 02:42:54;;;;;;;;;;;20.70;51.00;;;;;;5174102;27;19962;-67
2022/09/22 02:45:22;;;;;;;;;;;21.20;49.90;;;;;;5192427;27;19927;-68
2022/09/22 02:47:52;;;;;;;;;;;21.70;49.00;;;;;;5192583;27;19918;-67
2022/09/22 02:50:20;;;;;;;;;;;22.10;48.30;;;;;;5173658;27;19923;-67
2022/09/22 02:52:49;;;;;;;;;;;22.40;47.70;;;;;;5175335;27;19964;-68
2022/09/22 02:55:15;;;;;;;;;;;22.70;47.10;;;;;;5170991;27;20479;-68
2022/09/22 02:57:40;;;;;;;;;;;23.00;46.70;;;;;;5152983;27;19922;-67
2022/09/22 03:00:06;;;;;;;;;;;23.20;46.10;;;;;;5152873;27;20359;-67
2022/09/22 03:02:32;;;;;;;;;;;23.40;45.90;;;;;;5152889;27;20546;-67
2022/09/22 03:04:57;;;;;;;;;;;23.70;45.40;;;;;;5170152;27;19923;-67
2022/09/22 03:07:23;;;;;;;;;;;24.00;44.80;;;;;;5152395;27;20484;-67
2022/09/22 03:09:48;;;;;;;;;;;24.40;44.30;;;;;;5152665;27;19918;-67
2022/09/22 03:12:14;;;;;;;;;;;24.70;43.70;;;;;;5170935;27;19919;-67
2022/09/22 03:14:39;;;;;;;;;;;25.00;43.00;;;;;;5170463;27;19926;-67
2022/09/22 03:17:05;;;;;;;;;;;25.20;43.00;;;;;;5137917;27;19919;-68
2022/09/22 03:19:30;;;;;;;;;;;25.40;42.50;;;;;;5138766;27;19919;-67
2022/09/22 03:21:56;;;;;;;;;;;25.60;42.30;;;;;;5138283;27;19963;-68
2022/09/22 03:24:21;;;;;;;;;;;25.70;42.10;;;;;;5138488;27;19927;-67
2022/09/22 03:26:47;;;;;;;;;;;25.80;41.90;;;;;;5138243;27;20306;-68
2022/09/22 03:29:13;;;;;;;;;;;26.00;41.70;;;;;;5138190;27;19999;-68
2022/09/22 03:31:38;;;;;;;;;;;26.00;41.40;;;;;;5138139;27;19923;-68
2022/09/22 03:34:04;;;;;;;;;;;26.10;41.20;;;;;;5138059;27;19926;-68
2022/09/22 03:36:29;;;;;;;;;;;26.10;41.20;;;;;;5156763;27;20012;-68
2022/09/22 03:38:55;;;;;;;;;;;26.10;41.20;;;;;;5156746;27;19972;-67
2022/09/22 03:41:20;;;;;;;;;;;26.10;40.90;;;;;;5138211;27;19919;-67
2022/09/22 03:43:46;;;;;;;;;;;26.10;41.10;;;;;;5138023;27;19923;-68
2022/09/22 03:46:13;;;;;;;;;;;26.00;41.00;;;;;;5137873;27;19923;-69
2022/09/22 03:48:38;;;;;;;;;;;25.90;41.00;;;;;;5137937;27;19919;-67
2022/09/22 03:51:04;;;;;;;;;;;25.80;41.10;;;;;;5156462;27;19933;-67
2022/09/22 03:53:30;;;;;;;;;;;25.70;41.30;;;;;;5138018;27;19970;-68
2022/09/22 03:56:03;;;;;;;;;;;25.60;41.40;;;;;;5137685;27;20547;-68
2022/09/22 03:58:29;;;;;;;;;;;25.50;41.20;;;;;;5137571;27;20438;-68
2022/09/22 04:00:54;;;;;;;;;;;25.40;41.50;;;;;;5156273;27;19977;-67
2022/09/22 04:03:23;;;;;;;;;;;25.30;41.50;;;;;;5137733;27;19922;-68
2022/09/22 04:05:49;;;;;;;;;;;25.20;41.60;;;;;;5155881;27;19923;-68
2022/09/22 04:08:15;;;;;;;;;;;25.10;41.60;;;;;;5137678;27;19922;-67
2022/09/22 04:10:41;;;;;;;;;;;25.00;41.80;;;;;;5137830;27;20040;-68
2022/09/22 04:13:06;;;;;;;;;;;24.90;41.80;;;;;;5137256;27;19963;-68
2022/09/22 04:15:32;;;;;;;;;;;24.80;42.00;;;;;;5137614;27;19919;-67
2022/09/22 04:17:58;;;;;;;;;;;24.70;42.10;;;;;;5137488;27;20015;-67
2022/09/22 04:20:23;;;;;;;;;;;24.70;42.20;;;;;;5155827;27;20366;-67
2022/09/22 04:22:49;;;;;;;;;;;24.70;42.10;;;;;;5155808;27;19925;-67
2022/09/22 04:25:14;;;;;;;;;;;24.90;42.10;;;;;;5137085;27;19946;-68
2022/09/22 04:27:40;;;;;;;;;;;24.90;41.80;;;;;;5118919;27;19926;-68
2022/09/22 04:30:06;;;;;;;;;;;25.10;41.50;;;;;;5137413;27;19919;-67
2022/09/22 04:32:31;;;;;;;;;;;25.20;41.40;;;;;;5157703;27;19919;-68
2022/09/22 04:34:57;;;;;;;;;;;25.30;41.10;;;;;;5158080;27;19918;-67
2022/09/22 04:37:22;;;;;;;;;;;25.50;40.90;;;;;;5157664;27;20275;-67
2022/09/22 04:39:48;;;;;;;;;;;25.60;40.70;;;;;;5176328;27;19919;-68
2022/09/22 04:42:14;;;;;;;;;;;25.70;40.60;;;;;;5157553;27;19919;-68
2022/09/22 04:44:40;;;;;;;;;;;25.70;40.50;;;;;;5157276;27;19971;-68
2022/09/22 04:47:05;;;;;;;;;;;25.70;40.50;;;;;;5176135;27;19961;-68
2022/09/22 04:49:32;;;;;;;;;;;25.60;40.40;;;;;;5157652;27;20335;-68
2022/09/22 04:51:58;;;;;;;;;;;25.50;40.40;;;;;;5157718;27;20013;-68
2022/09/22 04:54:23;;;;;;;;;;;25.50;40.60;;;;;;5142507;27;19919;-69
2022/09/22 04:56:49;;;;;;;;;;;25.40;40.60;;;;;;5136643;27;19925;-68
2022/09/22 04:59:14;;;;;;;;;;;25.30;40.90;;;;;;5136657;27;20009;-68
2022/09/22 05:01:40;;;;;;;;;;;25.10;41.00;;;;;;5154890;27;19919;-68
2022/09/22 05:04:05;;;;;;;;;;;25.10;41.00;;;;;;5154569;27;19930;-68
2022/09/22 05:06:31;;;;;;;;;;;25.00;41.20;;;;;;5154860;27;19930;-68
2022/09/22 05:08:57;;;;;;;;;;;24.80;41.10;;;;;;5154835;27;19919;-68
2022/09/22 05:11:23;;;;;;;;;;;24.80;41.20;;;;;;5136584;27;19923;-68
2022/09/22 05:13:49;;;;;;;;;;;24.70;41.40;;;;;;5136504;27;19919;-68
2022/09/22 05:16:15;;;;;;;;;;;24.70;41.50;;;;;;5154663;27;19925;-68
2022/09/22 05:18:41;;;;;;;;;;;24.70;41.50;;;;;;5136208;27;19926;-68
2022/09/22 05:21:07;;;;;;;;;;;24.60;41.40;;;;;;5154614;27;19919;-68
2022/09/22 05:23:33;;;;;;;;;;;24.70;41.60;;;;;;5136378;27;20306;-68
2022/09/22 05:25:59;;;;;;;;;;;24.70;41.60;;;;;;5154527;27;20354;-68
2022/09/22 05:28:25;;;;;;;;;;;24.70;41.40;;;;;;5135952;27;19998;-68
2022/09/22 05:30:51;;;;;;;;;;;24.80;41.30;;;;;;5135777;27;20017;-68
2022/09/22 05:33:16;;;;;;;;;;;24.90;41.20;;;;;;5154282;27;19919;-68
2022/09/22 05:35:42;;;;;;;;;;;24.90;41.00;;;;;;5136151;27;19923;-68
2022/09/22 05:38:07;;;;;;;;;;;25.10;40.90;;;;;;5135547;27;20429;-67
2022/09/22 05:40:33;;;;;;;;;;;25.00;40.60;;;;;;5141345;27;20051;-69
2022/09/22 05:42:58;;;;;;;;;;;24.90;40.90;;;;;;5133892;27;19919;-68
2022/09/22 05:45:24;;;;;;;;;;;24.70;40.70;;;;;;5152137;27;20025;-69
2022/09/22 05:47:50;;;;;;;;;;;24.60;40.90;;;;;;5137806;27;19919;-72
2022/09/22 05:50:16;;;;;;;;;;;24.50;40.80;;;;;;5134058;27;19933;-70
2022/09/22 05:52:42;;;;;;;;;;;24.40;40.80;;;;;;5151079;27;19923;-78
2022/09/22 05:55:08;;;;;;;;;;;24.60;40.90;;;;;;5130250;27;19925;-81
2022/09/22 05:57:34;;;;;;;;;;;24.70;40.70;;;;;;5150002;27;19971;-74
2022/09/22 05:59:59;;;;;;;;;;;24.90;40.60;;;;;;5138480;27;19940;-69
2022/09/22 06:02:25;;;;;;;;;;;25.10;40.10;;;;;;5148618;27;20353;-69
2022/09/22 06:04:51;;;;;;;;;;;25.30;39.70;;;;;;5134920;27;19923;-69
2022/09/22 06:07:19;;;;;;;;;;;25.40;39.30;;;;;;5134206;27;19926;-70
2022/09/22 06:09:45;;;;;;;;;;;25.50;39.10;;;;;;5140830;27;19929;-68
2022/09/22 06:12:10;;;;;;;;;;;25.40;38.50;;;;;;5130794;27;20009;-70
2022/09/22 06:14:36;;;;;;;;;;;25.30;38.20;;;;;;5136901;27;20541;-70
2022/09/22 06:17:02;;;;;;;;;;;25.30;38.30;;;;;;5141658;27;20318;-71
2022/09/22 06:19:28;;;;;;;;;;;25.20;38.20;;;;;;5119538;27;19923;-68
2022/09/22 06:21:54;;;;;;;;;;;25.40;38.20;;;;;;5127724;27;19976;-68
2022/09/22 06:24:21;;;;;;;;;;;25.40;38.20;;;;;;5130499;27;20461;-68
2022/09/22 06:26:46;;;;;;;;;;;25.50;37.80;;;;;;5129712;27;19920;-69
2022/09/22 06:29:12;;;;;;;;;;;25.50;37.40;;;;;;5132752;27;19934;-67
2022/09/22 06:31:38;;;;;;;;;;;25.50;37.90;;;;;;5135003;27;19996;-68
2022/09/22 06:34:04;;;;;;;;;;;25.50;37.60;;;;;;5130995;27;19923;-67
2022/09/22 06:36:30;;;;;;;;;;;25.60;37.50;;;;;;5138302;27;19945;-68
2022/09/22 06:38:57;;;;;;;;;;;25.50;37.60;;;;;;5137107;27;19977;-68
2022/09/22 06:41:24;;;;;;;;;;;25.50;37.70;;;;;;5138702;27;19974;-69
2022/09/22 06:43:54;;;;;;;;;;;25.40;37.60;;;;;;5138104;27;19929;-69
2022/09/22 06:46:23;;;;;;;;;;;25.30;37.90;;;;;;5136621;27;19981;-68
2022/09/22 06:48:49;;;;;;;;;;;25.20;38.00;;;;;;5139332;27;20511;-73
2022/09/22 06:51:16;;;;;;;;;;;25.20;38.20;;;;;;5143765;27;20736;-70
2022/09/22 06:53:43;;;;;;;;;;;25.40;38.20;;;;;;5153104;27;19923;-74
2022/09/22 06:56:08;;;;;;;;;;;25.50;38.30;;;;;;5155797;27;19962;-69
2022/09/22 06:58:34;;;;;;;;;;;25.50;38.50;;;;;;5144099;27;19954;-70
2022/09/22 07:01:06;;;;;;;;;;;25.50;38.70;;;;;;5139051;27;19954;-71
2022/09/22 07:03:32;;;;;;;;;;;25.30;38.90;;;;;;5134912;27;19922;-72
2022/09/22 07:05:59;;;;;;;;;;;25.20;39.30;;;;;;5135459;27;20385;-70
2022/09/22 07:08:26;;;;;;;;;;;25.00;39.60;;;;;;5137948;27;19926;-72
2022/09/22 07:10:52;;;;;;;;;;;24.80;40.10;;;;;;5141456;27;20395;-73
2022/09/22 07:13:18;;;;;;;;;;;24.50;40.50;;;;;;5135836;27;19930;-72
2022/09/22 07:15:44;;;;;;;;;;;24.30;41.00;;;;;;5135327;27;20743;-72
2022/09/22 07:18:09;;;;;;;;;;;24.10;41.50;;;;;;5134381;27;19925;-75
2022/09/22 07:20:34;;;;;;;;;;;23.90;42.00;;;;;;5137931;27;19934;-70
2022/09/22 07:23:00;;;;;;;;;;;23.70;42.40;;;;;;5133478;27;19962;-72
2022/09/22 07:25:27;;;;;;;;;;;23.50;42.90;;;;;;5136401;27;20301;-70
2022/09/22 07:27:53;;;;;;;;;;;23.40;43.30;;;;;;5140329;27;20033;-71
2022/09/22 07:30:21;;;;;;;;;;;23.20;43.60;;;;;;5135727;27;19958;-74
2022/09/22 07:32:47;;;;;;;;;;;23.10;44.00;;;;;;5140105;27;19923;-71
2022/09/22 07:35:12;;;;;;;;;;;23.00;44.30;;;;;;5134497;27;20490;-72
2022/09/22 07:37:39;;;;;;;;;;;23.00;44.50;;;;;;5141149;27;19922;-75
2022/09/22 07:40:06;;;;;;;;;;;22.80;44.70;;;;;;5131527;27;19923;-69
2022/09/22 07:42:32;;;;;;;;;;;22.80;45.00;;;;;;5132771;27;19998;-71
2022/09/22 07:45:12;;;;;;;;;;;22.70;45.10;;;;;;5134368;27;20006;-70
2022/09/22 07:50:24;;;;;;;;;;;22.60;45.60;;;;;;5135658;27;19930;-68
2022/09/22 07:52:51;;;;;;;;;;;22.60;45.90;;;;;;5135766;27;19923;-69
2022/09/22 07:55:16;;;;;;;;;;;22.60;45.90;;;;;;5134306;27;19930;-68
2022/09/22 07:57:42;;;;;;;;;;;22.50;45.90;;;;;;5137368;27;19923;-68
2022/09/22 08:00:08;;;;;;;;;;;22.30;46.00;;;;;;5137915;27;19923;-68
2022/09/22 08:02:33;;;;;;;;;;;22.20;46.30;;;;;;5138846;27;19923;-68
2022/09/22 08:05:00;;;;;;;;;;;22.00;46.50;;;;;;5143147;27;20687;-68
2022/09/22 08:07:25;;;;;;;;;;;21.90;46.80;;;;;;5140090;27;20411;-68
2022/09/22 08:09:51;;;;;;;;;;;21.80;47.00;;;;;;5139329;27;19920;-69
2022/09/22 08:12:16;;;;;;;;;;;21.70;47.30;;;;;;5146173;27;19983;-68
2022/09/22 08:14:42;;;;;;;;;;;21.60;47.40;;;;;;5144634;27;20422;-67
2022/09/22 08:17:11;;;;;;;;;;;21.60;47.70;;;;;;5156332;27;19923;-68
2022/09/22 08:19:36;;;;;;;;;;;21.50;47.80;;;;;;5154425;27;19923;-68
2022/09/22 08:22:02;;;;;;;;;;;21.50;47.90;;;;;;5156653;27;19923;-68
2022/09/22 08:24:27;;;;;;;;;;;21.50;48.00;;;;;;5142480;27;19922;-68
2022/09/22 08:26:54;;;;;;;;;;;21.40;48.20;;;;;;5138010;27;19919;-68
2022/09/22 08:29:20;;;;;;;;;;;21.30;48.40;;;;;;5141433;27;19934;-68
2022/09/22 08:31:46;;;;;;;;;;;21.20;48.50;;;;;;5144211;27;19922;-68
2022/09/22 08:34:15;;;;;;;;;;;21.20;48.80;;;;;;5143814;27;20021;-68
2022/09/22 08:36:45;;;;;;;;;;;21.20;48.80;;;;;;5141729;27;19936;-67
2022/09/22 08:39:11;;;;;;;;;;;21.20;48.80;;;;;;5152779;27;19927;-68
2022/09/22 08:44:21;;;;;;;;;;;21.10;48.90;;;;;;5071702;28;19925;-67
2022/09/22 08:46:47;;;;;;;;;;;21.10;48.80;;;;;;5062704;28;20667;-66
2022/09/22 08:52:30;;;;;;;;;;;21.00;48.90;;;;;;5048637;28;19924;-67
2022/09/22 08:54:58;;;;;;;;;;;21.00;49.10;;;;;;5051342;28;19925;-66
2022/09/22 09:00:09;;;;;;;;;;;20.90;49.10;;;;;;5065661;28;19917;-67
2022/09/22 09:02:55;;;;;;;;;;;21.00;49.10;;;;;;5062132;28;19983;-68
2022/09/22 09:05:40;;;;;;;;;;;20.90;49.10;;;;;;5050375;28;20311;-68
2022/09/22 09:08:27;;;;;;;;;;;20.90;49.20;;;;;;5056396;28;20889;-68
2022/09/22 09:10:55;;;;;;;;;;;20.90;49.20;;;;;;5049564;28;19936;-70
2022/09/22 09:16:23;;;;;;;;;;;20.90;49.40;;;;;;5101850;27;1869921;-71
2022/09/22 09:18:53;;;;;;;;;;;20.90;49.50;;;;;;5138987;27;20591;-70
2022/09/22 09:21:21;;;;;;;;;;;20.90;49.60;;;;;;5140816;27;20030;-67
2022/09/22 09:23:50;;;;;;;;;;;20.90;49.70;;;;;;5153769;27;19923;-68
2022/09/22 09:26:17;;;;;;;;;;;20.90;49.80;;;;;;5141163;27;19942;-66
2022/09/22 09:28:46;;;;;;;;;;;20.90;49.90;;;;;;5137201;27;20286;-67
2022/09/22 09:31:17;;;;;;;;;;;20.90;50.10;;;;;;5140888;27;19929;-67
2022/09/22 09:36:28;;;;;;;;;;;20.90;50.20;;;;;;5071318;28;19924;-69
2022/09/22 09:38:55;;;;;;;;;;;20.80;50.10;;;;;;5060999;28;19924;-66
2022/09/22 09:41:22;;;;;;;;;;;20.90;50.20;;;;;;5053772;28;20007;-66
2022/09/22 09:43:49;;;;;;;;;;;20.80;50.40;;;;;;5054771;28;19991;-66
2022/09/22 09:46:26;;;;;;;;;;;20.80;51.20;;;;;;5055247;28;19920;-67
2022/09/22 09:49:13;;;;;;;;;;;20.80;50.60;;;;;;5055363;28;20380;-68
2022/09/22 09:51:42;;;;;;;;;;;20.80;50.80;;;;;;5048350;28;19928;-65
2022/09/22 09:54:11;;;;;;;;;;;20.80;50.90;;;;;;5077253;28;19959;-65
2022/09/22 09:56:57;;;;;;;;;;;20.80;50.80;;;;;;5061815;28;20054;-71
2022/09/22 10:02:14;;;;;;;;;;;20.90;51.20;;;;;;5059831;28;19933;-69
2022/09/22 10:04:40;;;;;;;;;;;20.90;51.30;;;;;;5063171;28;19963;-72
2022/09/22 10:07:25;;;;;;;;;;;21.00;51.40;;;;;;5055630;28;19964;-68
2022/09/22 10:09:52;;;;;;;;;;;21.00;51.50;;;;;;5058347;28;19924;-69
2022/09/22 10:12:33;;;;;;;;;;;21.00;51.60;;;;;;5059182;28;19932;-69
2022/09/22 10:14:59;;;;;;;;;;;21.10;51.50;;;;;;5060131;28;19928;-70
2022/09/22 10:17:27;;;;;;;;;;;21.00;51.40;;;;;;5074926;28;20455;-66
2022/09/22 10:20:14;;;;;;;;;;;21.10;51.40;;;;;;5058290;28;20112;-66
2022/09/22 10:22:39;;;;;;;;;;;21.10;51.30;;;;;;5056449;28;20012;-66
2022/09/22 10:25:06;;;;;;;;;;;21.10;51.20;;;;;;5056566;28;20078;-66
2022/09/22 10:27:31;;;;;;;;;;;21.10;51.10;;;;;;5059131;28;19928;-66
2022/09/22 10:30:10;;;;;;;;;;;21.20;50.90;;;;;;5063798;28;19977;-67
2022/09/22 10:32:36;;;;;;;;;;;21.20;50.80;;;;;;5071714;28;19924;-66
2022/09/22 10:35:22;;;;;;;;;;;21.20;50.70;;;;;;5065898;28;19940;-66
2022/09/22 10:37:47;;;;;;;;;;;21.20;50.60;;;;;;5063200;28;20572;-66
2022/09/22 10:40:15;;;;;;;;;;;21.20;50.50;;;;;;5070410;28;19950;-66
2022/09/22 10:42:44;;;;;;;;;;;21.20;50.40;;;;;;5058047;28;20011;-66
2022/09/22 10:45:12;;;;;;;;;;;21.30;50.30;;;;;;5067066;28;19935;-71
2022/09/22 10:47:44;;;;;;;;;;;21.20;50.20;;;;;;5056245;28;19920;-67
2022/09/22 10:50:30;;;;;;;;;;;21.30;50.30;;;;;;5059199;28;20644;-69
2022/09/22 10:53:16;;;;;;;;;;;21.20;50.20;;;;;;5049421;28;19932;-68
2022/09/22 10:55:51;;;;;;;;;;;21.20;50.20;;;;;;5047675;28;19931;-68
2022/09/22 10:58:24;;;;;;;;;;;21.20;50.30;;;;;;5045709;28;19924;-67
2022/09/22 11:00:51;;;;;;;;;;;21.20;50.30;;;;;;5057282;28;19924;-67
2022/09/22 11:14:41;;;;;;;;;;;21.10;50.30;;;;;;5087463;28;19946;-67
2022/09/22 11:17:15;;;;;;;;;;;21.10;50.40;;;;;;5087520;28;20544;-66
2022/09/22 11:19:47;;;;;;;;;;;21.00;50.30;;;;;;5091096;28;20003;-65
2022/09/22 11:22:32;;;;;;;;;;;21.00;50.40;;;;;;5093421;28;19928;-66
2022/09/22 11:27:45;;;;;;;;;;;21.10;50.70;;;;;;5064225;28;20729;-66
2022/09/22 11:38:28;;;;;;;;;;;21.10;51.10;;;;;;5068207;28;19920;-66
2022/09/22 11:41:01;;;;;;;;;;;21.10;51.20;;;;;;5076317;28;19920;-67
2022/09/22 11:43:39;;;;;;;;;;;21.20;51.40;;;;;;5065257;28;19931;-72
2022/09/22 11:46:09;;;;;;;;;;;21.20;52.10;;;;;;5071207;28;20105;-68
2022/09/22 11:51:41;;;;;;;;;;;21.20;52.10;;;;;;5083566;27;19924;-70
2022/09/22 11:54:14;;;;;;;;;;;21.20;52.20;;;;;;5086542;28;19924;-67
2022/09/22 11:56:41;;;;;;;;;;;21.20;52.40;;;;;;5092512;28;19932;-68
2022/09/22 11:59:19;;;;;;;;;;;21.20;52.40;;;;;;5085188;28;19924;-69
2022/09/22 12:01:52;;;;;;;;;;;21.20;52.10;;;;;;5090103;28;20087;-67
2022/09/22 12:04:31;;;;;;;;;;;21.20;52.10;;;;;;5084991;28;20694;-70
2022/09/22 12:06:57;;;;;;;;;;;21.20;52.90;;;;;;5122167;27;19920;-70
2022/09/22 12:12:13;;;;;;;;;;;21.20;52.30;;;;;;5084746;27;19920;-68
2022/09/22 12:14:38;;;;;;;;;;;21.20;52.40;;;;;;5073301;28;19928;-69
2022/09/22 12:22:48;;;;;;;;;;;21.30;52.60;;;;;;5065909;28;19921;-66
2022/09/22 12:25:14;;;;;;;;;;;21.30;52.60;;;;;;5048963;28;19936;-67
2022/09/22 12:27:39;;;;;;;;;;;21.30;52.50;;;;;;5051995;28;19929;-67
2022/09/22 12:30:06;;;;;;;;;;;21.30;52.50;;;;;;5054198;28;19921;-66
2022/09/22 12:32:34;;;;;;;;;;;21.30;52.60;;;;;;5053665;28;19931;-66
2022/09/22 12:35:00;;;;;;;;;;;21.30;52.60;;;;;;5051069;28;19971;-68
2022/09/22 12:37:29;;;;;;;;;;;21.30;52.30;;;;;;5067501;28;20019;-68
2022/09/22 12:39:58;;;;;;;;;;;21.30;52.20;;;;;;5054161;28;19936;-66
2022/09/22 12:42:33;;;;;;;;;;;21.30;52.00;;;;;;5049967;28;20296;-66
2022/09/22 12:45:18;;;;;;;;;;;21.30;51.90;;;;;;5051615;28;19929;-68
2022/09/22 12:47:48;;;;;;;;;;;21.30;51.80;;;;;;5051504;28;20000;-70
2022/09/22 12:50:34;;;;;;;;;;;21.30;51.80;;;;;;5054455;28;19970;-68
2022/09/22 12:53:01;;;;;;;;;;;21.30;51.90;;;;;;5050613;28;19929;-68
2022/09/22 13:01:24;;;;;;;;;;;21.40;51.50;;;;;;5142628;27;19919;-67
2022/09/22 13:03:50;;;;;;;;;;;21.40;51.60;;;;;;5088154;28;19920;-67
2022/09/22 13:12:03;;;;;;;;;;;21.40;51.10;;;;;;5090545;27;19940;-66
2022/09/22 13:14:49;;;;;;;;;;;21.40;50.90;;;;;;5058057;28;19925;-66
2022/09/22 13:17:34;;;;;;;;;;;21.40;50.80;;;;;;5076876;28;20314;-70
2022/09/22 13:20:05;;;;;;;;;;;21.40;50.60;;;;;;5056651;28;19939;-68
2022/09/22 13:22:31;;;;;;;;;;;21.40;50.70;;;;;;5076410;28;19927;-70
2022/09/22 13:24:57;;;;;;;;;;;21.40;50.60;;;;;;5058336;28;19921;-70
2022/09/22 13:27:22;;;;;;;;;;;21.40;50.70;;;;;;5057656;28;20276;-69
2022/09/22 13:30:05;;;;;;;;;;;21.40;50.80;;;;;;5055659;28;20011;-68
2022/09/22 13:32:31;;;;;;;;;;;21.40;50.80;;;;;;5074287;28;19924;-68
2022/09/22 13:34:57;;;;;;;;;;;21.40;50.90;;;;;;5056994;28;19920;-69
2022/09/22 13:37:23;;;;;;;;;;;21.40;51.00;;;;;;5060266;28;19924;-69
2022/09/22 13:39:50;;;;;;;;;;;21.40;51.10;;;;;;5075947;28;19920;-67
2022/09/22 13:42:18;;;;;;;;;;;21.40;51.30;;;;;;5073197;28;20452;-69
2022/09/22 13:44:46;;;;;;;;;;;21.40;51.50;;;;;;5056540;28;20277;-70
2022/09/22 13:47:13;;;;;;;;;;;21.40;51.80;;;;;;5054583;28;19920;-67
2022/09/22 13:49:41;;;;;;;;;;;21.50;52.00;;;;;;5075255;28;20281;-70
2022/09/22 13:52:11;;;;;;;;;;;21.50;52.20;;;;;;5058723;28;20015;-70
2022/09/22 13:54:37;;;;;;;;;;;21.50;52.30;;;;;;5059175;28;19966;-70
2022/09/22 13:57:05;;;;;;;;;;;21.60;52.50;;;;;;5071668;28;19979;-70
2022/09/22 13:59:35;;;;;;;;;;;21.60;52.60;;;;;;5056574;28;19924;-69
2022/09/22 14:02:04;;;;;;;;;;;21.70;52.80;;;;;;5059979;28;19982;-73
2022/09/22 14:04:30;;;;;;;;;;;21.60;52.50;;;;;;5060132;28;19974;-66
2022/09/22 14:06:56;;;;;;;;;;;21.60;52.40;;;;;;5058726;28;20382;-67
2022/09/22 14:09:23;;;;;;;;;;;21.60;52.40;;;;;;5075690;28;19954;-67
2022/09/22 14:11:49;;;;;;;;;;;21.70;52.40;;;;;;5073923;28;20032;-71
2022/09/22 14:14:23;;;;;;;;;;;21.70;52.30;;;;;;5074441;28;20011;-72
2022/09/22 14:16:50;;;;;;;;;;;21.70;51.60;;;;;;5056810;28;19920;-67
2022/09/22 14:19:19;;;;;;;;;;;21.70;51.50;;;;;;5079170;28;19920;-69
2022/09/22 14:21:50;;;;;;;;;;;21.70;51.20;;;;;;5053462;28;20424;-67
2022/09/22 14:24:16;;;;;;;;;;;21.70;51.20;;;;;;5059807;28;20300;-66
2022/09/22 14:26:50;;;;;;;;;;;21.70;51.00;;;;;;5061434;28;19931;-66
2022/09/22 14:32:04;;;;;;;;;;;21.60;50.20;;;;;;5076093;28;20592;-72
2022/09/22 14:34:31;;;;;;;;;;;21.60;49.70;;;;;;5058921;28;20347;-68
2022/09/22 14:36:57;;;;;;;;;;;21.60;49.80;;;;;;5057569;28;19967;-67
2022/09/22 14:39:25;;;;;;;;;;;21.60;49.70;;;;;;5053754;28;19931;-67
2022/09/22 14:41:54;;;;;;;;;;;21.50;49.90;;;;;;5053672;28;19924;-67
2022/09/22 14:44:25;;;;;;;;;;;21.50;49.90;;;;;;5057904;28;19925;-68
2022/09/22 14:46:53;;;;;;;;;;;21.40;50.10;;;;;;5060239;28;19974;-67
2022/09/22 14:52:33;;;;;;;;;;;21.40;50.30;;;;;;5095026;27;19926;-68
2022/09/22 14:55:05;;;;;;;;;;;21.30;50.30;;;;;;5079018;28;19971;-68
2022/09/22 14:57:31;;;;;;;;;;;21.30;50.50;;;;;;5066940;28;20376;-68
2022/09/22 15:02:48;;;;;;;;;;;21.30;50.60;;;;;;5064314;28;19935;-67
2022/09/22 15:05:22;;;;;;;;;;;21.20;50.80;;;;;;5068191;28;19935;-71
2022/09/22 15:07:48;;;;;;;;;;;21.20;50.80;;;;;;5059997;28;19964;-67
2022/09/22 15:10:18;;;;;;;;;;;21.20;50.80;;;;;;5057959;28;20018;-68
2022/09/22 15:12:44;;;;;;;;;;;21.10;50.80;;;;;;5058279;28;20015;-68
2022/09/22 15:15:16;;;;;;;;;;;21.20;50.90;;;;;;5058101;28;20407;-68
2022/09/22 15:20:33;;;;;;;;;;;21.10;51.10;;;;;;5059056;28;19921;-68
2022/09/22 15:23:00;;;;;;;;;;;21.10;51.20;;;;;;5077904;28;19928;-68
2022/09/22 15:25:25;;;;;;;;;;;21.00;51.20;;;;;;5080152;28;19967;-68
2022/09/22 15:27:52;;;;;;;;;;;21.10;51.30;;;;;;5058738;28;19956;-68
2022/09/22 15:30:19;;;;;;;;;;;21.00;51.30;;;;;;5061023;28;19925;-68
2022/09/22 15:32:45;;;;;;;;;;;21.00;51.30;;;;;;5059441;28;19925;-68
2022/09/22 15:35:11;;;;;;;;;;;21.00;51.40;;;;;;5058347;28;19963;-68
2022/09/22 15:37:38;;;;;;;;;;;21.00;51.40;;;;;;5077804;28;20386;-68
2022/09/22 15:40:12;;;;;;;;;;;21.00;51.50;;;;;;5077131;28;19920;-68
2022/09/22 15:42:38;;;;;;;;;;;21.00;51.50;;;;;;5078591;28;20023;-68
2022/09/22 15:45:03;;;;;;;;;;;21.00;51.50;;;;;;5060289;28;19920;-68
2022/09/22 15:47:29;;;;;;;;;;;21.00;51.50;;;;;;5076687;28;20273;-68
2022/09/22 15:49:56;;;;;;;;;;;21.00;51.50;;;;;;5058805;28;19979;-68
2022/09/22 15:52:21;;;;;;;;;;;21.00;51.50;;;;;;5077416;28;20300;-68
2022/09/22 15:54:47;;;;;;;;;;;21.00;51.60;;;;;;5059328;28;20014;-68